sensor_id;sensor_type;location;lat;lon;timestamp;P1;durP1;ratioP1;P2;durP2;ratioP2
77581;SDS011;66726;52.388;9.986;2023-01-15T00:02:05;2.05;;;1.80;;
77581;SDS011;66726;52.388;9.986;2023-01-15T00:04:35;4.97;;;2.40;;
77581;SDS011;66726;52.388;9.986;2023-01-15T00:07:03;4.85;;;1.70;;
77581;SDS011;66726;52.388;9.986;2023-01-15T00:09:31;3.20;;;1.80;;
77581;SDS011;66726;52.388;9.986;2023-01-15T00:11:59;3.55;;;1.70;;
77581;SDS011;66726;52.388;9.986;2023-01-15T00:14:27;3.25;;;1.70;;
77581;SDS011;66726;52.388;9.986;2023-01-15T00:16:55;4.57;;;1.70;;
77581;SDS011;66726;52.388;9.986;2023-01-15T00:19:23;3.60;;;1.80;;
77581;SDS011;66726;52.388;9.986;2023-01-15T00:21:53;2.40;;;1.80;;
77581;SDS011;66726;52.388;9.986;2023-01-15T00:24:21;3.10;;;1.73;;
77581;SDS011;66726;52.388;9.986;2023-01-15T00:27:07;3.80;;;1.80;;
77581;SDS011;66726;52.388;9.986;2023-01-15T00:29:54;1.92;;;1.40;;
77581;SDS011;66726;52.388;9.986;2023-01-15T00:32:22;3.65;;;1.70;;
77581;SDS011;66726;52.388;9.986;2023-01-15T00:34:52;3.63;;;1.83;;
77581;SDS011;66726;52.388;9.986;2023-01-15T00:37:22;2.10;;;1.45;;
77581;SDS011;66726;52.388;9.986;2023-01-15T00:39:50;2.95;;;1.52;;
77581;SDS011;66726;52.388;9.986;2023-01-15T00:42:18;3.03;;;1.30;;
77581;SDS011;66726;52.388;9.986;2023-01-15T00:44:46;2.45;;;1.63;;
77581;SDS011;66726;52.388;9.986;2023-01-15T00:47:14;3.20;;;1.33;;
77581;SDS011;66726;52.388;9.986;2023-01-15T00:49:43;2.75;;;1.40;;
77581;SDS011;66726;52.388;9.986;2023-01-15T00:52:11;3.30;;;1.63;;
77581;SDS011;66726;52.388;9.986;2023-01-15T00:54:40;3.85;;;1.70;;
77581;SDS011;66726;52.388;9.986;2023-01-15T00:57:09;3.83;;;1.50;;
77581;SDS011;66726;52.388;9.986;2023-01-15T00:59:37;2.72;;;1.20;;
77581;SDS011;66726;52.388;9.986;2023-01-15T01:02:05;3.60;;;1.30;;
77581;SDS011;66726;52.388;9.986;2023-01-15T01:04:34;4.85;;;2.10;;
77581;SDS011;66726;52.388;9.986;2023-01-15T01:07:02;3.78;;;1.42;;
77581;SDS011;66726;52.388;9.986;2023-01-15T01:09:30;4.70;;;1.60;;
77581;SDS011;66726;52.388;9.986;2023-01-15T01:12:00;4.45;;;1.50;;
77581;SDS011;66726;52.388;9.986;2023-01-15T01:14:28;5.00;;;1.92;;
77581;SDS011;66726;52.388;9.986;2023-01-15T01:16:56;3.20;;;1.63;;
77581;SDS011;66726;52.388;9.986;2023-01-15T01:19:25;2.95;;;1.38;;
77581;SDS011;66726;52.388;9.986;2023-01-15T01:21:53;2.40;;;1.25;;
77581;SDS011;66726;52.388;9.986;2023-01-15T01:24:22;2.43;;;1.20;;
77581;SDS011;66726;52.388;9.986;2023-01-15T01:26:51;2.05;;;1.17;;
77581;SDS011;66726;52.388;9.986;2023-01-15T01:29:21;2.40;;;1.02;;
77581;SDS011;66726;52.388;9.986;2023-01-15T01:31:50;2.07;;;1.00;;
77581;SDS011;66726;52.388;9.986;2023-01-15T01:34:18;2.60;;;1.10;;
77581;SDS011;66726;52.388;9.986;2023-01-15T01:36:46;3.25;;;1.30;;
77581;SDS011;66726;52.388;9.986;2023-01-15T01:39:15;2.17;;;1.03;;
77581;SDS011;66726;52.388;9.986;2023-01-15T01:41:46;3.47;;;1.10;;
77581;SDS011;66726;52.388;9.986;2023-01-15T01:47:43;2.88;;;1.02;;
77581;SDS011;66726;52.388;9.986;2023-01-15T01:50:12;2.40;;;1.00;;
77581;SDS011;66726;52.388;9.986;2023-01-15T01:52:42;1.95;;;1.05;;
77581;SDS011;66726;52.388;9.986;2023-01-15T01:55:19;4.27;;;1.50;;
77581;SDS011;66726;52.388;9.986;2023-01-15T01:57:51;2.40;;;1.05;;
77581;SDS011;66726;52.388;9.986;2023-01-15T02:00:26;1.40;;;0.88;;
77581;SDS011;66726;52.388;9.986;2023-01-15T02:02:57;1.55;;;1.10;;
77581;SDS011;66726;52.388;9.986;2023-01-15T02:05:29;2.08;;;0.95;;
77581;SDS011;66726;52.388;9.986;2023-01-15T02:08:00;2.42;;;1.10;;
77581;SDS011;66726;52.388;9.986;2023-01-15T02:10:28;2.47;;;1.20;;
77581;SDS011;66726;52.388;9.986;2023-01-15T02:12:58;3.70;;;1.25;;
77581;SDS011;66726;52.388;9.986;2023-01-15T02:15:33;2.65;;;1.20;;
77581;SDS011;66726;52.388;9.986;2023-01-15T02:18:08;2.00;;;1.20;;
77581;SDS011;66726;52.388;9.986;2023-01-15T02:20:49;1.77;;;0.90;;
77581;SDS011;66726;52.388;9.986;2023-01-15T02:23:38;2.05;;;0.98;;
77581;SDS011;66726;52.388;9.986;2023-01-15T02:29:39;2.00;;;0.90;;
77581;SDS011;66726;52.388;9.986;2023-01-15T02:32:19;1.80;;;0.82;;
77581;SDS011;66726;52.388;9.986;2023-01-15T02:34:58;1.63;;;0.90;;
77581;SDS011;66726;52.388;9.986;2023-01-15T02:37:34;1.48;;;0.90;;
77581;SDS011;66726;52.388;9.986;2023-01-15T02:40:08;2.77;;;1.10;;
77581;SDS011;66726;52.388;9.986;2023-01-15T02:42:40;1.25;;;0.90;;
77581;SDS011;66726;52.388;9.986;2023-01-15T02:45:13;2.42;;;0.95;;
77581;SDS011;66726;52.388;9.986;2023-01-15T02:47:49;1.50;;;0.80;;
77581;SDS011;66726;52.388;9.986;2023-01-15T02:50:23;1.77;;;0.88;;
77581;SDS011;66726;52.388;9.986;2023-01-15T02:52:59;1.55;;;0.93;;
77581;SDS011;66726;52.388;9.986;2023-01-15T02:55:34;2.30;;;1.00;;
77581;SDS011;66726;52.388;9.986;2023-01-15T02:58:12;1.95;;;0.95;;
77581;SDS011;66726;52.388;9.986;2023-01-15T03:00:47;1.55;;;1.00;;
77581;SDS011;66726;52.388;9.986;2023-01-15T03:03:22;2.08;;;1.10;;
77581;SDS011;66726;52.388;9.986;2023-01-15T03:06:01;1.97;;;0.93;;
77581;SDS011;66726;52.388;9.986;2023-01-15T03:08:39;2.00;;;0.80;;
77581;SDS011;66726;52.388;9.986;2023-01-15T03:11:08;1.33;;;0.70;;
77581;SDS011;66726;52.388;9.986;2023-01-15T03:13:43;1.42;;;0.80;;
77581;SDS011;66726;52.388;9.986;2023-01-15T03:16:20;1.77;;;1.00;;
77581;SDS011;66726;52.388;9.986;2023-01-15T03:19:11;2.42;;;1.08;;
77581;SDS011;66726;52.388;9.986;2023-01-15T03:21:51;1.05;;;0.80;;
77581;SDS011;66726;52.388;9.986;2023-01-15T03:24:27;3.08;;;0.90;;
77581;SDS011;66726;52.388;9.986;2023-01-15T03:27:02;2.00;;;0.80;;
77581;SDS011;66726;52.388;9.986;2023-01-15T03:29:33;1.73;;;1.00;;
77581;SDS011;66726;52.388;9.986;2023-01-15T03:32:06;2.08;;;1.08;;
77581;SDS011;66726;52.388;9.986;2023-01-15T03:34:37;3.38;;;1.00;;
77581;SDS011;66726;52.388;9.986;2023-01-15T03:37:10;2.50;;;1.10;;
77581;SDS011;66726;52.388;9.986;2023-01-15T03:39:39;2.20;;;1.10;;
77581;SDS011;66726;52.388;9.986;2023-01-15T03:42:12;2.63;;;1.17;;
77581;SDS011;66726;52.388;9.986;2023-01-15T03:44:54;2.20;;;1.15;;
77581;SDS011;66726;52.388;9.986;2023-01-15T03:47:32;2.45;;;1.35;;
77581;SDS011;66726;52.388;9.986;2023-01-15T03:50:14;2.03;;;1.10;;
77581;SDS011;66726;52.388;9.986;2023-01-15T03:52:52;2.33;;;1.30;;
77581;SDS011;66726;52.388;9.986;2023-01-15T03:55:34;3.20;;;1.30;;
77581;SDS011;66726;52.388;9.986;2023-01-15T03:58:12;2.95;;;1.35;;
77581;SDS011;66726;52.388;9.986;2023-01-15T04:00:48;2.58;;;1.10;;
77581;SDS011;66726;52.388;9.986;2023-01-15T04:03:21;2.80;;;1.15;;
77581;SDS011;66726;52.388;9.986;2023-01-15T04:05:50;2.45;;;1.10;;
77581;SDS011;66726;52.388;9.986;2023-01-15T04:08:22;3.03;;;1.25;;
77581;SDS011;66726;52.388;9.986;2023-01-15T04:10:55;2.22;;;1.20;;
77581;SDS011;66726;52.388;9.986;2023-01-15T04:13:26;3.80;;;1.48;;
77581;SDS011;66726;52.388;9.986;2023-01-15T04:15:58;2.38;;;1.50;;
77581;SDS011;66726;52.388;9.986;2023-01-15T04:18:27;2.10;;;1.00;;
77581;SDS011;66726;52.388;9.986;2023-01-15T04:20:55;4.63;;;1.40;;
77581;SDS011;66726;52.388;9.986;2023-01-15T04:23:26;2.78;;;1.48;;
77581;SDS011;66726;52.388;9.986;2023-01-15T04:25:55;2.85;;;1.45;;
77581;SDS011;66726;52.388;9.986;2023-01-15T04:28:23;2.28;;;1.30;;
77581;SDS011;66726;52.388;9.986;2023-01-15T04:30:51;2.80;;;1.30;;
77581;SDS011;66726;52.388;9.986;2023-01-15T04:33:26;2.80;;;1.35;;
77581;SDS011;66726;52.388;9.986;2023-01-15T04:35:54;2.80;;;1.27;;
77581;SDS011;66726;52.388;9.986;2023-01-15T04:38:25;4.40;;;1.50;;
77581;SDS011;66726;52.388;9.986;2023-01-15T04:40:54;3.17;;;1.30;;
77581;SDS011;66726;52.388;9.986;2023-01-15T04:43:43;2.03;;;1.30;;
77581;SDS011;66726;52.388;9.986;2023-01-15T04:46:28;3.97;;;1.70;;
77581;SDS011;66726;52.388;9.986;2023-01-15T04:48:58;2.28;;;1.33;;
77581;SDS011;66726;52.388;9.986;2023-01-15T04:51:27;4.15;;;1.83;;
77581;SDS011;66726;52.388;9.986;2023-01-15T04:53:55;4.38;;;1.60;;
77581;SDS011;66726;52.388;9.986;2023-01-15T04:56:23;3.10;;;1.50;;
77581;SDS011;66726;52.388;9.986;2023-01-15T04:58:51;4.15;;;1.50;;
77581;SDS011;66726;52.388;9.986;2023-01-15T05:01:19;3.22;;;1.40;;
77581;SDS011;66726;52.388;9.986;2023-01-15T05:03:47;3.13;;;1.53;;
77581;SDS011;66726;52.388;9.986;2023-01-15T05:06:17;3.58;;;1.65;;
77581;SDS011;66726;52.388;9.986;2023-01-15T05:08:45;3.23;;;1.50;;
77581;SDS011;66726;52.388;9.986;2023-01-15T05:11:13;3.13;;;1.50;;
77581;SDS011;66726;52.388;9.986;2023-01-15T05:13:41;3.40;;;1.50;;
77581;SDS011;66726;52.388;9.986;2023-01-15T05:16:10;4.20;;;1.60;;
77581;SDS011;66726;52.388;9.986;2023-01-15T05:18:42;3.80;;;1.80;;
77581;SDS011;66726;52.388;9.986;2023-01-15T05:21:14;3.42;;;1.80;;
77581;SDS011;66726;52.388;9.986;2023-01-15T05:23:47;4.38;;;1.90;;
77581;SDS011;66726;52.388;9.986;2023-01-15T05:26:18;2.88;;;1.70;;
77581;SDS011;66726;52.388;9.986;2023-01-15T05:28:47;3.83;;;1.90;;
77581;SDS011;66726;52.388;9.986;2023-01-15T05:31:18;4.32;;;1.90;;
77581;SDS011;66726;52.388;9.986;2023-01-15T05:33:47;4.35;;;1.90;;
77581;SDS011;66726;52.388;9.986;2023-01-15T05:36:19;3.57;;;1.70;;
77581;SDS011;66726;52.388;9.986;2023-01-15T05:38:49;4.75;;;2.00;;
77581;SDS011;66726;52.388;9.986;2023-01-15T05:41:19;5.60;;;1.60;;
77581;SDS011;66726;52.388;9.986;2023-01-15T05:44:07;5.72;;;1.80;;
77581;SDS011;66726;52.388;9.986;2023-01-15T05:46:38;4.20;;;1.80;;
77581;SDS011;66726;52.388;9.986;2023-01-15T05:49:09;5.28;;;2.08;;
77581;SDS011;66726;52.388;9.986;2023-01-15T05:51:40;6.50;;;1.80;;
77581;SDS011;66726;52.388;9.986;2023-01-15T05:54:10;4.35;;;1.60;;
77581;SDS011;66726;52.388;9.986;2023-01-15T05:56:41;2.33;;;1.42;;
77581;SDS011;66726;52.388;9.986;2023-01-15T05:59:11;3.70;;;1.63;;
77581;SDS011;66726;52.388;9.986;2023-01-15T06:01:40;5.22;;;1.85;;
77581;SDS011;66726;52.388;9.986;2023-01-15T06:04:09;4.47;;;1.70;;
77581;SDS011;66726;52.388;9.986;2023-01-15T06:06:41;3.50;;;1.83;;
77581;SDS011;66726;52.388;9.986;2023-01-15T06:09:10;4.82;;;1.80;;
77581;SDS011;66726;52.388;9.986;2023-01-15T06:11:38;4.65;;;1.80;;
77581;SDS011;66726;52.388;9.986;2023-01-15T06:14:07;5.68;;;2.20;;
77581;SDS011;66726;52.388;9.986;2023-01-15T06:16:37;4.38;;;1.90;;
77581;SDS011;66726;52.388;9.986;2023-01-15T06:19:07;4.70;;;2.00;;
77581;SDS011;66726;52.388;9.986;2023-01-15T06:21:36;4.78;;;1.92;;
77581;SDS011;66726;52.388;9.986;2023-01-15T06:24:06;5.80;;;2.20;;
77581;SDS011;66726;52.388;9.986;2023-01-15T06:26:36;4.55;;;2.00;;
77581;SDS011;66726;52.388;9.986;2023-01-15T06:29:05;5.80;;;2.40;;
77581;SDS011;66726;52.388;9.986;2023-01-15T06:31:33;6.53;;;2.20;;
77581;SDS011;66726;52.388;9.986;2023-01-15T06:34:01;6.95;;;2.28;;
77581;SDS011;66726;52.388;9.986;2023-01-15T06:36:29;6.20;;;2.05;;
77581;SDS011;66726;52.388;9.986;2023-01-15T06:38:57;7.63;;;2.28;;
77581;SDS011;66726;52.388;9.986;2023-01-15T06:41:27;5.63;;;2.10;;
77581;SDS011;66726;52.388;9.986;2023-01-15T06:44:13;6.40;;;2.30;;
77581;SDS011;66726;52.388;9.986;2023-01-15T06:47:02;6.07;;;2.20;;
77581;SDS011;66726;52.388;9.986;2023-01-15T06:49:50;8.45;;;2.80;;
77581;SDS011;66726;52.388;9.986;2023-01-15T06:52:21;5.45;;;2.63;;
77581;SDS011;66726;52.388;9.986;2023-01-15T06:54:49;6.27;;;2.70;;
77581;SDS011;66726;52.388;9.986;2023-01-15T06:57:20;6.70;;;2.53;;
77581;SDS011;66726;52.388;9.986;2023-01-15T06:59:48;5.78;;;2.63;;
77581;SDS011;66726;52.388;9.986;2023-01-15T07:02:17;6.85;;;2.30;;
77581;SDS011;66726;52.388;9.986;2023-01-15T07:04:46;6.35;;;2.35;;
77581;SDS011;66726;52.388;9.986;2023-01-15T07:07:15;8.25;;;2.30;;
77581;SDS011;66726;52.388;9.986;2023-01-15T07:09:45;6.75;;;2.45;;
77581;SDS011;66726;52.388;9.986;2023-01-15T07:12:13;7.15;;;2.50;;
77581;SDS011;66726;52.388;9.986;2023-01-15T07:14:43;7.50;;;2.63;;
77581;SDS011;66726;52.388;9.986;2023-01-15T07:17:12;8.40;;;2.50;;
77581;SDS011;66726;52.388;9.986;2023-01-15T07:19:40;5.47;;;2.20;;
77581;SDS011;66726;52.388;9.986;2023-01-15T07:22:09;6.35;;;2.90;;
77581;SDS011;66726;52.388;9.986;2023-01-15T07:24:37;8.57;;;2.88;;
77581;SDS011;66726;52.388;9.986;2023-01-15T07:27:05;7.15;;;3.65;;
77581;SDS011;66726;52.388;9.986;2023-01-15T07:29:33;6.30;;;2.65;;
77581;SDS011;66726;52.388;9.986;2023-01-15T07:32:03;7.80;;;2.65;;
77581;SDS011;66726;52.388;9.986;2023-01-15T07:34:31;8.20;;;2.80;;
77581;SDS011;66726;52.388;9.986;2023-01-15T07:36:59;6.53;;;2.70;;
77581;SDS011;66726;52.388;9.986;2023-01-15T07:39:28;5.05;;;2.42;;
77581;SDS011;66726;52.388;9.986;2023-01-15T07:41:56;6.57;;;2.30;;
77581;SDS011;66726;52.388;9.986;2023-01-15T07:44:42;7.07;;;2.50;;
77581;SDS011;66726;52.388;9.986;2023-01-15T07:47:29;9.25;;;2.78;;
77581;SDS011;66726;52.388;9.986;2023-01-15T07:50:15;5.55;;;2.40;;
77581;SDS011;66726;52.388;9.986;2023-01-15T07:52:46;7.77;;;2.50;;
77581;SDS011;66726;52.388;9.986;2023-01-15T07:55:18;6.75;;;2.55;;
77581;SDS011;66726;52.388;9.986;2023-01-15T07:57:47;7.78;;;2.55;;
77581;SDS011;66726;52.388;9.986;2023-01-15T08:00:19;6.18;;;2.45;;
77581;SDS011;66726;52.388;9.986;2023-01-15T08:02:50;6.68;;;2.30;;
77581;SDS011;66726;52.388;9.986;2023-01-15T08:05:18;7.00;;;2.53;;
77581;SDS011;66726;52.388;9.986;2023-01-15T08:07:46;6.43;;;2.53;;
77581;SDS011;66726;52.388;9.986;2023-01-15T08:10:15;7.60;;;2.70;;
77581;SDS011;66726;52.388;9.986;2023-01-15T08:12:44;7.03;;;2.43;;
77581;SDS011;66726;52.388;9.986;2023-01-15T08:15:34;6.55;;;2.40;;
77581;SDS011;66726;52.388;9.986;2023-01-15T08:18:10;6.95;;;2.58;;
77581;SDS011;66726;52.388;9.986;2023-01-15T08:20:38;6.57;;;2.33;;
77581;SDS011;66726;52.388;9.986;2023-01-15T08:23:06;9.55;;;2.70;;
77581;SDS011;66726;52.388;9.986;2023-01-15T08:25:35;6.40;;;2.60;;
77581;SDS011;66726;52.388;9.986;2023-01-15T08:28:03;5.75;;;2.35;;
77581;SDS011;66726;52.388;9.986;2023-01-15T08:30:32;9.32;;;2.75;;
77581;SDS011;66726;52.388;9.986;2023-01-15T08:33:00;6.35;;;2.50;;
77581;SDS011;66726;52.388;9.986;2023-01-15T08:35:30;6.80;;;2.30;;
77581;SDS011;66726;52.388;9.986;2023-01-15T08:38:02;9.40;;;2.97;;
77581;SDS011;66726;52.388;9.986;2023-01-15T08:40:32;7.75;;;2.50;;
77581;SDS011;66726;52.388;9.986;2023-01-15T08:43:01;8.57;;;2.60;;
77581;SDS011;66726;52.388;9.986;2023-01-15T08:45:29;6.50;;;2.30;;
77581;SDS011;66726;52.388;9.986;2023-01-15T08:47:57;9.20;;;3.38;;
77581;SDS011;66726;52.388;9.986;2023-01-15T08:50:25;8.73;;;2.77;;
77581;SDS011;66726;52.388;9.986;2023-01-15T08:52:55;9.43;;;3.08;;
77581;SDS011;66726;52.388;9.986;2023-01-15T08:55:23;7.50;;;3.00;;
77581;SDS011;66726;52.388;9.986;2023-01-15T08:57:51;9.50;;;3.38;;
77581;SDS011;66726;52.388;9.986;2023-01-15T09:00:19;9.60;;;3.30;;
77581;SDS011;66726;52.388;9.986;2023-01-15T09:02:50;8.65;;;2.88;;
77581;SDS011;66726;52.388;9.986;2023-01-15T09:05:18;8.23;;;2.67;;
77581;SDS011;66726;52.388;9.986;2023-01-15T09:07:46;8.25;;;3.28;;
77581;SDS011;66726;52.388;9.986;2023-01-15T09:10:16;8.75;;;2.67;;
77581;SDS011;66726;52.388;9.986;2023-01-15T09:12:44;8.65;;;2.90;;
77581;SDS011;66726;52.388;9.986;2023-01-15T09:15:12;8.65;;;2.97;;
77581;SDS011;66726;52.388;9.986;2023-01-15T09:17:40;7.57;;;2.70;;
77581;SDS011;66726;52.388;9.986;2023-01-15T09:20:09;7.95;;;2.95;;
77581;SDS011;66726;52.388;9.986;2023-01-15T09:22:41;5.93;;;2.65;;
77581;SDS011;66726;52.388;9.986;2023-01-15T09:25:09;7.57;;;3.22;;
77581;SDS011;66726;52.388;9.986;2023-01-15T09:27:39;10.73;;;6.47;;
77581;SDS011;66726;52.388;9.986;2023-01-15T09:30:08;13.38;;;8.10;;
77581;SDS011;66726;52.388;9.986;2023-01-15T09:32:43;19.30;;;15.63;;
77581;SDS011;66726;52.388;9.986;2023-01-15T09:35:11;29.80;;;21.48;;
77581;SDS011;66726;52.388;9.986;2023-01-15T09:37:39;11.52;;;5.28;;
77581;SDS011;66726;52.388;9.986;2023-01-15T09:40:12;14.23;;;9.43;;
77581;SDS011;66726;52.388;9.986;2023-01-15T09:43:13;9.30;;;4.78;;
77581;SDS011;66726;52.388;9.986;2023-01-15T09:45:56;9.80;;;3.95;;
77581;SDS011;66726;52.388;9.986;2023-01-15T09:48:38;8.13;;;3.83;;
77581;SDS011;66726;52.388;9.986;2023-01-15T09:51:22;10.07;;;3.67;;
77581;SDS011;66726;52.388;9.986;2023-01-15T09:54:05;10.15;;;5.35;;
77581;SDS011;66726;52.388;9.986;2023-01-15T09:56:49;42.25;;;23.63;;
77581;SDS011;66726;52.388;9.986;2023-01-15T09:59:21;13.23;;;7.00;;
77581;SDS011;66726;52.388;9.986;2023-01-15T10:02:01;11.23;;;4.80;;
77581;SDS011;66726;52.388;9.986;2023-01-15T10:04:44;8.15;;;3.30;;
77581;SDS011;66726;52.388;9.986;2023-01-15T10:07:23;11.70;;;4.70;;
77581;SDS011;66726;52.388;9.986;2023-01-15T10:10:00;7.18;;;2.80;;
77581;SDS011;66726;52.388;9.986;2023-01-15T10:12:35;8.27;;;3.15;;
77581;SDS011;66726;52.388;9.986;2023-01-15T10:15:13;7.38;;;2.95;;
77581;SDS011;66726;52.388;9.986;2023-01-15T10:17:50;5.78;;;2.40;;
77581;SDS011;66726;52.388;9.986;2023-01-15T10:20:26;6.82;;;2.72;;
77581;SDS011;66726;52.388;9.986;2023-01-15T10:23:22;6.15;;;2.08;;
77581;SDS011;66726;52.388;9.986;2023-01-15T10:26:02;8.27;;;2.40;;
77581;SDS011;66726;52.388;9.986;2023-01-15T10:28:52;5.10;;;2.10;;
77581;SDS011;66726;52.388;9.986;2023-01-15T10:31:34;4.88;;;2.05;;
77581;SDS011;66726;52.388;9.986;2023-01-15T10:34:22;5.30;;;2.00;;
77581;SDS011;66726;52.388;9.986;2023-01-15T10:37:35;5.20;;;2.00;;
77581;SDS011;66726;52.388;9.986;2023-01-15T10:40:16;3.90;;;1.95;;
77581;SDS011;66726;52.388;9.986;2023-01-15T10:43:06;5.88;;;2.03;;
77581;SDS011;66726;52.388;9.986;2023-01-15T10:45:46;6.67;;;2.00;;
77581;SDS011;66726;52.388;9.986;2023-01-15T10:48:23;7.85;;;2.00;;
77581;SDS011;66726;52.388;9.986;2023-01-15T10:51:00;4.53;;;1.85;;
77581;SDS011;66726;52.388;9.986;2023-01-15T10:53:41;4.35;;;1.80;;
77581;SDS011;66726;52.388;9.986;2023-01-15T10:56:20;5.40;;;2.20;;
77581;SDS011;66726;52.388;9.986;2023-01-15T10:59:01;5.53;;;1.95;;
77581;SDS011;66726;52.388;9.986;2023-01-15T11:01:41;5.80;;;2.10;;
77581;SDS011;66726;52.388;9.986;2023-01-15T11:04:11;5.22;;;2.33;;
77581;SDS011;66726;52.388;9.986;2023-01-15T11:06:40;6.35;;;1.98;;
77581;SDS011;66726;52.388;9.986;2023-01-15T11:09:08;4.35;;;2.20;;
77581;SDS011;66726;52.388;9.986;2023-01-15T11:11:49;6.30;;;2.78;;
77581;SDS011;66726;52.388;9.986;2023-01-15T11:14:38;5.30;;;2.20;;
77581;SDS011;66726;52.388;9.986;2023-01-15T11:17:26;6.95;;;2.40;;
77581;SDS011;66726;52.388;9.986;2023-01-15T11:20:28;6.85;;;2.35;;
77581;SDS011;66726;52.388;9.986;2023-01-15T11:23:05;4.90;;;2.00;;
77581;SDS011;66726;52.388;9.986;2023-01-15T11:25:35;5.32;;;2.42;;
77581;SDS011;66726;52.388;9.986;2023-01-15T11:28:13;4.90;;;2.20;;
77581;SDS011;66726;52.388;9.986;2023-01-15T11:30:52;6.88;;;2.53;;
77581;SDS011;66726;52.388;9.986;2023-01-15T11:33:21;7.47;;;2.60;;
77581;SDS011;66726;52.388;9.986;2023-01-15T11:35:55;7.75;;;2.67;;
77581;SDS011;66726;52.388;9.986;2023-01-15T11:38:26;5.88;;;2.20;;
77581;SDS011;66726;52.388;9.986;2023-01-15T11:40:57;6.05;;;2.03;;
77581;SDS011;66726;52.388;9.986;2023-01-15T11:43:30;6.78;;;2.10;;
77581;SDS011;66726;52.388;9.986;2023-01-15T11:46:30;6.18;;;2.20;;
77581;SDS011;66726;52.388;9.986;2023-01-15T11:49:17;5.82;;;2.53;;
77581;SDS011;66726;52.388;9.986;2023-01-15T11:52:07;18.20;;;10.75;;
77581;SDS011;66726;52.388;9.986;2023-01-15T11:54:38;6.93;;;4.07;;
77581;SDS011;66726;52.388;9.986;2023-01-15T11:57:11;6.95;;;2.22;;
77581;SDS011;66726;52.388;9.986;2023-01-15T11:59:51;4.50;;;2.03;;
77581;SDS011;66726;52.388;9.986;2023-01-15T12:02:22;5.22;;;2.30;;
77581;SDS011;66726;52.388;9.986;2023-01-15T12:05:02;6.53;;;3.22;;
77581;SDS011;66726;52.388;9.986;2023-01-15T12:07:34;5.60;;;2.80;;
77581;SDS011;66726;52.388;9.986;2023-01-15T12:10:10;5.83;;;2.20;;
77581;SDS011;66726;52.388;9.986;2023-01-15T12:13:10;4.03;;;1.87;;
77581;SDS011;66726;52.388;9.986;2023-01-15T12:15:53;6.63;;;2.85;;
77581;SDS011;66726;52.388;9.986;2023-01-15T12:18:42;5.13;;;2.47;;
77581;SDS011;66726;52.388;9.986;2023-01-15T12:21:27;6.60;;;2.60;;
77581;SDS011;66726;52.388;9.986;2023-01-15T12:27:18;7.70;;;3.75;;
77581;SDS011;66726;52.388;9.986;2023-01-15T12:30:02;8.10;;;3.72;;
77581;SDS011;66726;52.388;9.986;2023-01-15T12:32:47;6.43;;;2.17;;
77581;SDS011;66726;52.388;9.986;2023-01-15T12:35:26;5.50;;;1.93;;
77581;SDS011;66726;52.388;9.986;2023-01-15T12:37:57;5.87;;;1.97;;
77581;SDS011;66726;52.388;9.986;2023-01-15T12:40:39;5.25;;;2.10;;
77581;SDS011;66726;52.388;9.986;2023-01-15T12:43:15;7.25;;;2.05;;
77581;SDS011;66726;52.388;9.986;2023-01-15T12:46:09;5.70;;;3.03;;
77581;SDS011;66726;52.388;9.986;2023-01-15T12:48:45;6.32;;;1.90;;
77581;SDS011;66726;52.388;9.986;2023-01-15T12:51:21;6.25;;;1.90;;
77581;SDS011;66726;52.388;9.986;2023-01-15T12:53:56;5.18;;;1.95;;
77581;SDS011;66726;52.388;9.986;2023-01-15T12:56:35;10.13;;;5.65;;
77581;SDS011;66726;52.388;9.986;2023-01-15T12:59:17;5.88;;;2.60;;
77581;SDS011;66726;52.388;9.986;2023-01-15T13:01:57;12.45;;;7.00;;
77581;SDS011;66726;52.388;9.986;2023-01-15T13:04:43;13.23;;;8.73;;
77581;SDS011;66726;52.388;9.986;2023-01-15T13:07:19;9.52;;;5.60;;
77581;SDS011;66726;52.388;9.986;2023-01-15T13:09:59;6.38;;;2.80;;
77581;SDS011;66726;52.388;9.986;2023-01-15T13:12:35;6.85;;;2.70;;
77581;SDS011;66726;52.388;9.986;2023-01-15T13:15:04;6.80;;;2.25;;
77581;SDS011;66726;52.388;9.986;2023-01-15T13:17:35;6.13;;;2.70;;
77581;SDS011;66726;52.388;9.986;2023-01-15T13:20:29;6.55;;;2.60;;
77581;SDS011;66726;52.388;9.986;2023-01-15T13:23:15;6.18;;;2.30;;
77581;SDS011;66726;52.388;9.986;2023-01-15T13:26:02;3.88;;;2.13;;
77581;SDS011;66726;52.388;9.986;2023-01-15T13:28:53;7.65;;;3.88;;
77581;SDS011;66726;52.388;9.986;2023-01-15T13:34:28;6.85;;;2.90;;
77581;SDS011;66726;52.388;9.986;2023-01-15T13:37:12;6.93;;;2.60;;
77581;SDS011;66726;52.388;9.986;2023-01-15T13:39:50;9.93;;;2.35;;
77581;SDS011;66726;52.388;9.986;2023-01-15T13:42:26;5.22;;;2.00;;
77581;SDS011;66726;52.388;9.986;2023-01-15T13:45:03;6.68;;;2.00;;
77581;SDS011;66726;52.388;9.986;2023-01-15T13:48:01;5.83;;;2.00;;
77581;SDS011;66726;52.388;9.986;2023-01-15T13:50:35;6.57;;;2.20;;
77581;SDS011;66726;52.388;9.986;2023-01-15T13:53:13;5.53;;;2.40;;
77581;SDS011;66726;52.388;9.986;2023-01-15T13:55:52;5.43;;;2.15;;
77581;SDS011;66726;52.388;9.986;2023-01-15T13:58:25;6.38;;;2.45;;
77581;SDS011;66726;52.388;9.986;2023-01-15T14:01:04;6.43;;;2.60;;
77581;SDS011;66726;52.388;9.986;2023-01-15T14:03:58;5.90;;;2.20;;
77581;SDS011;66726;52.388;9.986;2023-01-15T14:06:37;7.25;;;2.30;;
77581;SDS011;66726;52.388;9.986;2023-01-15T14:09:09;5.50;;;2.20;;
77581;SDS011;66726;52.388;9.986;2023-01-15T14:11:43;4.77;;;2.00;;
77581;SDS011;66726;52.388;9.986;2023-01-15T14:14:38;6.18;;;2.10;;
77581;SDS011;66726;52.388;9.986;2023-01-15T14:17:43;5.53;;;2.00;;
77581;SDS011;66726;52.388;9.986;2023-01-15T14:23:34;6.73;;;2.47;;
77581;SDS011;66726;52.388;9.986;2023-01-15T14:26:29;7.68;;;2.30;;
77581;SDS011;66726;52.388;9.986;2023-01-15T14:29:24;5.53;;;2.28;;
77581;SDS011;66726;52.388;9.986;2023-01-15T14:32:13;6.47;;;2.13;;
77581;SDS011;66726;52.388;9.986;2023-01-15T14:35:03;9.40;;;2.70;;
77581;SDS011;66726;52.388;9.986;2023-01-15T14:37:43;7.68;;;2.35;;
77581;SDS011;66726;52.388;9.986;2023-01-15T14:40:17;6.90;;;1.90;;
77581;SDS011;66726;52.388;9.986;2023-01-15T14:42:49;6.32;;;2.03;;
77581;SDS011;66726;52.388;9.986;2023-01-15T14:45:28;7.35;;;2.30;;
77581;SDS011;66726;52.388;9.986;2023-01-15T14:48:01;4.88;;;2.10;;
77581;SDS011;66726;52.388;9.986;2023-01-15T14:50:34;4.15;;;1.80;;
77581;SDS011;66726;52.388;9.986;2023-01-15T14:53:13;5.75;;;1.88;;
77581;SDS011;66726;52.388;9.986;2023-01-15T14:55:54;6.15;;;2.05;;
77581;SDS011;66726;52.388;9.986;2023-01-15T14:58:30;5.63;;;2.10;;
77581;SDS011;66726;52.388;9.986;2023-01-15T15:01:13;5.78;;;2.20;;
77581;SDS011;66726;52.388;9.986;2023-01-15T15:03:56;7.50;;;2.17;;
77581;SDS011;66726;52.388;9.986;2023-01-15T15:06:33;10.52;;;6.13;;
77581;SDS011;66726;52.388;9.986;2023-01-15T15:09:12;21.87;;;14.70;;
77581;SDS011;66726;52.388;9.986;2023-01-15T15:11:52;8.27;;;2.67;;
77581;SDS011;66726;52.388;9.986;2023-01-15T15:14:49;6.65;;;2.40;;
77581;SDS011;66726;52.388;9.986;2023-01-15T15:17:29;5.07;;;2.22;;
77581;SDS011;66726;52.388;9.986;2023-01-15T15:20:19;12.63;;;6.22;;
77581;SDS011;66726;52.388;9.986;2023-01-15T15:23:00;10.18;;;6.80;;
77581;SDS011;66726;52.388;9.986;2023-01-15T15:25:38;5.03;;;2.10;;
77581;SDS011;66726;52.388;9.986;2023-01-15T15:28:08;7.55;;;3.22;;
77581;SDS011;66726;52.388;9.986;2023-01-15T15:30:39;5.68;;;2.53;;
77581;SDS011;66726;52.388;9.986;2023-01-15T15:33:14;6.03;;;2.37;;
77581;SDS011;66726;52.388;9.986;2023-01-15T15:35:47;4.97;;;2.00;;
77581;SDS011;66726;52.388;9.986;2023-01-15T15:38:21;4.60;;;1.75;;
77581;SDS011;66726;52.388;9.986;2023-01-15T15:40:52;5.80;;;2.30;;
77581;SDS011;66726;52.388;9.986;2023-01-15T15:43:26;4.35;;;1.95;;
77581;SDS011;66726;52.388;9.986;2023-01-15T15:46:23;6.77;;;2.83;;
77581;SDS011;66726;52.388;9.986;2023-01-15T15:49:11;5.35;;;2.22;;
77581;SDS011;66726;52.388;9.986;2023-01-15T15:51:43;4.82;;;1.88;;